Главная страница
METAR-TAF:

METAR-TAF

Аэропорты :

Зонгулдак, Турция

широта: 41-27N, долгота: 031-48E, высота над уровнем моря: 136 м

Текущие метеонаблюдения

Эта сводка был подготовлена 27 минут назад, в 11:50 UTC
Штиль
Температура 17°C
Влажность 52%
Давление 1015 hPa
Видимость 10 км и более
небольшая облачность на высоте 4000 фута
Отдельные облака на высоте 18000 фута

METAR: LTAS 151150Z 00000KT 9999 FEW040 SCT180 17/07 Q1015

Время: 15:17 (12:17 UTC)

Прогноз

Эта сводка был подготовлена 1 час и 37 минут назад, в 10:40 UTC
Прогноз действительный с 15-го 12 UTC до 15-го 21 UTC
Ветер 2 Узел переменных направлений
Видимость 10 км и более
Отдельные облака на высоте 4000 фута
изменения
С 15-го 14 UTC до 15-го 16 UTC
Видимость 10 км и более
Нет облачности ниже 1500 м, и нет кучево-дождевой облачности

TAF: LTAS 151040Z 1512/1521 VRB02KT 9999 SCT040 BECMG 1514/1516 CAVOK

Метеонаблюдения и прогнозы для более 4000 аэропортов (сводки METAR и TAF).

Имеющиеся станции представлены на карте желтыми и красными точками.

Чтобы увидеть название станции, наведите на нее мышь.

Затем щелкните, чтобы увидеть метеонаблюдения и метеопрогнозы.

Управление картой: чтобы увеличить масштаб, щелкните зеленые кнопки с черным крестиком; чтобы уменьшить масштаб, щелкните зеленую кнопку с тире; для просмотра соседних карт щелкайте зеленые стрелки.


METAR-TAF: